Time;durP1;ratioP1;P1;durP2;ratioP2;P2;SDS_P1;SDS_P2;PMS_P1;PMS_P2;Temp;Humidity;BMP_temperature;BMP_pressure;BME280_temperature;BME280_humidity;BME280_pressure;Samples;Min_cycle;Max_cycle;Signal;HPM_P1;HPM_P2
2023/10/25 00:02:18;;;;;;;0.52;0.40;;;19.80;83.70;;;;;;6004425;22;45062;-69
2023/10/25 00:04:44;;;;;;;0.77;0.50;;;19.80;83.90;;;;;;6016212;22;45008;-69
2023/10/25 00:07:24;;;;;;;0.45;0.45;;;19.80;83.80;;;;;;6016733;22;45013;-69
2023/10/25 00:09:51;;;;;;;1.40;0.80;;;19.80;83.50;;;;;;6036340;22;46440;-69
2023/10/25 00:12:52;;;;;;;0.52;0.38;;;19.80;83.70;;;;;;5995642;22;45248;-69
2023/10/25 00:40:57;;;;;;;4.22;0.80;;;19.70;83.00;;;;;;6152436;22;45544;-72
2023/10/25 00:43:46;;;;;;;0.88;0.63;;;19.70;83.00;;;;;;6035275;22;45241;-69
2023/10/25 00:46:28;;;;;;;1.40;0.63;;;19.70;82.90;;;;;;6029001;22;45215;-69
2023/10/25 00:49:14;;;;;;;2.97;0.73;;;19.70;82.60;;;;;;6040398;22;46222;-69
2023/10/25 00:51:51;;;;;;;0.88;0.65;;;19.70;82.40;;;;;;6049645;22;45103;-69
2023/10/25 00:54:18;;;;;;;1.45;0.70;;;19.70;82.40;;;;;;6015997;22;45167;-69
2023/10/25 00:59:59;;;;;;;1.50;0.50;;;19.60;81.80;;;;;;6009659;22;45895;-69
2023/10/25 01:02:32;;;;;;;1.33;0.60;;;19.70;81.80;;;;;;6024743;22;45211;-69
2023/10/25 01:05:15;;;;;;;2.03;0.57;;;19.70;81.60;;;;;;6018235;22;45155;-69
2023/10/25 01:07:55;;;;;;;2.03;0.57;;;19.70;81.60;;;;;;6030695;22;45516;-69
2023/10/25 01:10:22;;;;;;;1.20;0.73;;;19.70;81.70;;;;;;6010371;22;47173;-69
2023/10/25 01:12:50;;;;;;;1.17;0.70;;;19.60;81.80;;;;;;6019753;22;45113;-69
2023/10/25 01:15:16;;;;;;;2.17;0.60;;;19.70;81.90;;;;;;6024036;22;45290;-69
2023/10/25 01:18:05;;;;;;;1.63;0.77;;;19.70;82.10;;;;;;6019936;22;45435;-69
2023/10/25 01:21:02;;;;;;;2.28;0.60;;;19.60;81.80;;;;;;6064593;22;46528;-69
2023/10/25 01:23:45;;;;;;;2.22;0.40;;;19.70;81.80;;;;;;6042827;22;45295;-69
2023/10/25 01:26:21;;;;;;;1.83;0.70;;;19.70;81.80;;;;;;6045342;22;45380;-69
2023/10/25 01:31:40;;;;;;;1.23;0.63;;;19.70;81.70;;;;;;5993925;22;46191;-69
2023/10/25 01:34:07;;;;;;;1.77;0.70;;;19.60;81.50;;;;;;6011539;22;45279;-69
2023/10/25 01:37:03;;;;;;;1.45;0.63;;;19.70;81.50;;;;;;6034016;22;45207;-68
2023/10/25 01:39:32;;;;;;;2.00;0.70;;;19.70;81.40;;;;;;6002300;22;45295;-69
2023/10/25 01:41:59;;;;;;;0.88;0.52;;;19.60;81.30;;;;;;6036607;22;46297;-69
2023/10/25 01:44:25;;;;;;;1.80;0.90;;;19.60;81.40;;;;;;6039512;22;45306;-69
2023/10/25 01:50:23;;;;;;;1.10;0.60;;;19.60;81.00;;;;;;5972404;22;45208;-69
2023/10/25 01:53:16;;;;;;;2.88;0.60;;;19.60;81.10;;;;;;6034524;22;46259;-69
2023/10/25 01:56:03;;;;;;;1.17;0.70;;;19.60;80.70;;;;;;6046725;22;45157;-68
2023/10/25 01:58:29;;;;;;;1.00;0.70;;;19.60;80.40;;;;;;6018245;22;45080;-69
2023/10/25 02:00:57;;;;;;;1.60;0.68;;;19.60;80.50;;;;;;6028003;22;45155;-69
2023/10/25 02:04:01;;;;;;;2.08;0.65;;;19.60;80.20;;;;;;6017439;22;47641;-68
2023/10/25 02:06:28;;;;;;;1.20;0.60;;;19.60;79.90;;;;;;6006474;22;45394;-69
2023/10/25 02:09:00;;;;;;;1.98;0.73;;;19.60;80.10;;;;;;6006812;22;45305;-68
2023/10/25 02:11:34;;;;;;;0.77;0.65;;;19.60;79.90;;;;;;6005169;22;45347;-68
2023/10/25 02:16:48;;;;;;;1.88;0.40;;;19.60;79.60;;;;;;5980658;22;45200;-68
2023/10/25 02:19:41;;;;;;;1.90;0.80;;;19.60;79.60;;;;;;6034791;22;45313;-68
2023/10/25 02:22:17;;;;;;;0.90;0.47;;;19.60;79.80;;;;;;6017270;22;45319;-68
2023/10/25 02:25:08;;;;;;;0.95;0.60;;;19.60;80.10;;;;;;6010215;22;46490;-68
2023/10/25 02:27:51;;;;;;;0.93;0.60;;;19.60;79.90;;;;;;6000994;22;45023;-68
2023/10/25 02:30:48;;;;;;;1.00;0.70;;;19.60;79.70;;;;;;6033979;22;45419;-67
2023/10/25 02:33:37;;;;;;;2.38;0.82;;;19.60;79.70;;;;;;6012417;22;45264;-68
2023/10/25 02:36:17;;;;;;;1.58;0.55;;;19.60;79.60;;;;;;6004292;22;45713;-68
2023/10/25 02:39:00;;;;;;;1.33;0.73;;;19.60;79.70;;;;;;6032569;22;45050;-68
2023/10/25 02:44:23;;;;;;;2.05;1.00;;;19.60;79.70;;;;;;5996658;22;45320;-67
2023/10/25 02:46:56;;;;;;;1.13;0.60;;;19.60;79.50;;;;;;6017536;22;46044;-67
2023/10/25 02:49:39;;;;;;;1.48;0.75;;;19.60;79.60;;;;;;6004470;22;45221;-67
2023/10/25 02:52:08;;;;;;;1.95;0.85;;;19.60;79.50;;;;;;6023637;22;45366;-67
2023/10/25 02:55:12;;;;;;;3.28;0.70;;;19.60;79.70;;;;;;6016604;22;45260;-67
2023/10/25 02:57:47;;;;;;;2.70;0.77;;;19.60;79.50;;;;;;6021059;22;46076;-67
2023/10/25 03:00:47;;;;;;;0.90;0.60;;;19.60;79.40;;;;;;6046487;22;45201;-67
2023/10/25 03:03:45;;;;;;;1.20;0.60;;;19.60;79.40;;;;;;6017243;22;45254;-67
2023/10/25 03:06:34;;;;;;;1.50;0.57;;;19.60;79.20;;;;;;6024354;22;45167;-67
2023/10/25 03:09:00;;;;;;;1.63;0.57;;;19.60;79.40;;;;;;6010930;22;46360;-67
2023/10/25 03:11:28;;;;;;;0.93;0.75;;;19.60;79.40;;;;;;6012604;22;45568;-67
2023/10/25 03:14:23;;;;;;;2.75;0.73;;;19.60;79.20;;;;;;6000925;22;45151;-67
2023/10/25 03:17:00;;;;;;;1.17;0.60;;;19.60;78.90;;;;;;6001477;22;45241;-67
2023/10/25 03:19:29;;;;;;;0.98;0.50;;;19.60;78.60;;;;;;6028446;22;47272;-67
2023/10/25 03:22:15;;;;;;;1.20;0.70;;;19.60;78.40;;;;;;6011142;22;45292;-67
2023/10/25 03:24:58;;;;;;;1.15;0.50;;;19.60;78.00;;;;;;6008796;22;45163;-67
2023/10/25 03:31:19;;;;;;;1.27;0.70;;;19.60;78.00;;;;;;5992740;22;45308;-67
2023/10/25 03:34:35;;;;;;;1.02;0.63;;;19.60;77.90;;;;;;6034206;22;45328;-67
2023/10/25 03:37:03;;;;;;;0.52;0.40;;;19.60;77.90;;;;;;6010767;22;45531;-67
2023/10/25 03:39:31;;;;;;;2.97;0.60;;;19.50;77.80;;;;;;6031611;22;45430;-67
2023/10/25 03:42:00;;;;;;;0.40;0.35;;;19.60;77.90;;;;;;6031264;22;46519;-67
2023/10/25 03:44:47;;;;;;;1.02;0.60;;;19.60;77.90;;;;;;5984842;22;45136;-67
2023/10/25 03:47:38;;;;;;;2.90;0.80;;;19.60;77.90;;;;;;6001317;22;45278;-67
2023/10/25 03:50:33;;;;;;;1.30;0.50;;;19.60;78.00;;;;;;6034632;22;45245;-67
2023/10/25 03:53:36;;;;;;;1.98;0.55;;;19.60;77.90;;;;;;6029208;22;46200;-67
2023/10/25 03:56:24;;;;;;;1.50;0.80;;;19.60;78.00;;;;;;6008363;22;45245;-67
2023/10/25 03:58:51;;;;;;;0.90;0.50;;;19.60;77.90;;;;;;6027957;22;45309;-67
2023/10/25 04:01:19;;;;;;;1.15;0.73;;;19.60;77.90;;;;;;6010007;22;45474;-67
2023/10/25 04:04:11;;;;;;;2.05;0.85;;;19.60;78.00;;;;;;6013211;22;46246;-67
2023/10/25 04:06:39;;;;;;;0.90;0.50;;;19.60;78.00;;;;;;6039121;22;45390;-67
2023/10/25 04:09:16;;;;;;;0.57;0.30;;;19.60;77.90;;;;;;6021822;22;45034;-67
2023/10/25 04:12:02;;;;;;;0.77;0.52;;;19.50;77.80;;;;;;6009292;22;45470;-67
2023/10/25 04:14:34;;;;;;;1.52;0.60;;;19.60;78.00;;;;;;6003649;22;46302;-67
2023/10/25 04:17:35;;;;;;;1.10;0.50;;;19.60;77.90;;;;;;5991139;22;45441;-66
2023/10/25 04:20:15;;;;;;;2.20;0.70;;;19.60;78.00;;;;;;6027020;22;45410;-67
2023/10/25 04:22:45;;;;;;;2.35;0.82;;;19.60;77.90;;;;;;6018509;22;45455;-66
2023/10/25 04:25:14;;;;;;;0.52;0.43;;;19.60;77.90;;;;;;6008132;22;46348;-67
2023/10/25 04:28:07;;;;;;;1.58;0.60;;;19.60;78.00;;;;;;6071089;22;45449;-67
2023/10/25 04:31:03;;;;;;;0.73;0.40;;;19.60;77.90;;;;;;6029326;22;45257;-66
2023/10/25 04:33:42;;;;;;;1.02;0.60;;;19.60;78.00;;;;;;6006351;22;45087;-66
2023/10/25 04:36:09;;;;;;;0.60;0.55;;;19.50;77.80;;;;;;5999321;22;47275;-66
2023/10/25 04:38:40;;;;;;;0.93;0.50;;;19.50;77.80;;;;;;5997964;22;45332;-67
2023/10/25 04:41:34;;;;;;;2.50;0.50;;;19.50;77.80;;;;;;6038002;22;45176;-64
2023/10/25 04:44:59;;;;;;;1.60;0.40;;;19.50;77.80;;;;;;6263030;22;45067;-64
2023/10/25 04:47:43;;;;;;;0.90;0.52;;;19.50;77.80;;;;;;6278236;22;46337;-65
2023/10/25 04:50:10;;;;;;;1.13;0.50;;;19.50;77.80;;;;;;6278617;22;45044;-66
2023/10/25 04:56:15;;;;;;;0.65;0.40;;;19.50;77.80;;;;;;6134235;22;45196;-68
2023/10/25 04:58:41;;;;;;;0.50;0.43;;;19.50;77.80;;;;;;6277997;22;46860;-65
2023/10/25 05:01:25;;;;;;;1.75;0.40;;;19.50;77.80;;;;;;6278085;22;45246;-66
2023/10/25 05:04:19;;;;;;;1.75;0.65;;;19.50;77.80;;;;;;6279015;22;45210;-66
2023/10/25 05:07:02;;;;;;;1.60;0.70;;;19.50;77.80;;;;;;6279674;22;45099;-66
2023/10/25 05:09:57;;;;;;;0.93;0.50;;;19.50;77.80;;;;;;6278558;22;47432;-65
2023/10/25 05:12:41;;;;;;;4.18;0.85;;;19.50;77.80;;;;;;6104022;22;45252;-67
2023/10/25 05:15:10;;;;;;;1.98;0.50;;;19.50;77.80;;;;;;6059213;22;45215;-64
2023/10/25 05:17:39;;;;;;;0.80;0.52;;;19.50;77.80;;;;;;6277280;22;45300;-65
2023/10/25 05:20:41;;;;;;;1.05;0.57;;;19.50;77.80;;;;;;6279292;22;47251;-66
2023/10/25 05:23:30;;;;;;;1.48;0.70;;;19.50;77.80;;;;;;6279796;22;45091;-66
2023/10/25 05:25:58;;;;;;;1.48;0.68;;;19.50;77.50;;;;;;6256284;22;45235;-67
2023/10/25 05:31:49;;;;;;;0.70;0.45;;;19.50;77.10;;;;;;6025266;22;46038;-67
2023/10/25 05:34:35;;;;;;;1.33;0.60;;;19.50;77.60;;;;;;6017691;22;45159;-68
2023/10/25 05:39:51;;;;;;;1.75;0.60;;;19.50;77.30;;;;;;6007164;22;45486;-68
2023/10/25 05:42:47;;;;;;;1.85;0.85;;;19.60;77.40;;;;;;6024079;22;46538;-67
2023/10/25 05:45:16;;;;;;;0.90;0.50;;;19.50;76.60;;;;;;6022607;22;45335;-68
2023/10/25 05:47:55;;;;;;;0.52;0.52;;;19.50;75.60;;;;;;6057118;22;45187;-66
2023/10/25 05:50:51;;;;;;;1.20;0.70;;;19.50;74.20;;;;;;6053936;22;45441;-66
2023/10/25 05:53:19;;;;;;;0.95;0.65;;;19.40;70.90;;;;;;6019105;22;47154;-66
2023/10/25 05:55:48;;;;;;;3.05;0.90;;;19.40;71.40;;;;;;6002806;22;45311;-66
2023/10/25 05:58:25;;;;;;;1.35;0.73;;;19.40;70.70;;;;;;6012248;22;45306;-65
2023/10/25 06:00:55;;;;;;;0.90;0.70;;;19.40;70.50;;;;;;6008221;22;45280;-65
2023/10/25 06:03:39;;;;;;;1.60;0.77;;;19.40;71.60;;;;;;6018645;22;46832;-66
2023/10/25 06:06:14;;;;;;;1.35;0.70;;;19.50;72.50;;;;;;6036858;22;46308;-66
2023/10/25 06:09:00;;;;;;;1.05;0.75;;;19.40;72.80;;;;;;6030811;22;45388;-65
2023/10/25 06:11:58;;;;;;;0.80;0.40;;;19.50;73.20;;;;;;6039563;22;45447;-67
2023/10/25 06:14:25;;;;;;;2.15;0.65;;;19.50;73.30;;;;;;6009623;22;45250;-67
2023/10/25 06:17:17;;;;;;;0.93;0.50;;;19.50;73.40;;;;;;6026209;22;45120;-65
2023/10/25 06:19:43;;;;;;;1.50;0.50;;;19.50;73.80;;;;;;6031230;22;45235;-68
2023/10/25 06:22:12;;;;;;;0.93;0.60;;;19.50;74.10;;;;;;6061006;22;45396;-64
2023/10/25 06:24:48;;;;;;;1.45;0.55;;;19.50;74.20;;;;;;6198506;22;46268;-65
2023/10/25 06:27:20;;;;;;;1.20;0.77;;;19.50;74.20;;;;;;6170987;22;45507;-67
2023/10/25 06:29:48;;;;;;;0.85;0.60;;;19.60;74.30;;;;;;6030371;22;45156;-68
2023/10/25 06:32:14;;;;;;;1.73;0.80;;;19.60;74.50;;;;;;6018238;22;45239;-67
2023/10/25 06:34:42;;;;;;;0.68;0.40;;;19.60;74.50;;;;;;6023136;22;47369;-67
2023/10/25 06:37:10;;;;;;;1.05;0.50;;;19.60;74.50;;;;;;6036923;22;45041;-67
2023/10/25 06:39:37;;;;;;;0.85;0.68;;;19.60;74.60;;;;;;6006438;22;45287;-67
2023/10/25 06:42:29;;;;;;;0.93;0.60;;;19.60;74.90;;;;;;6040943;22;45184;-66
2023/10/25 06:45:15;;;;;;;1.30;0.70;;;19.60;74.90;;;;;;6034962;22;47073;-63
2023/10/25 06:47:43;;;;;;;0.88;0.60;;;19.60;75.00;;;;;;6036299;22;45188;-65
2023/10/25 06:50:16;;;;;;;1.02;0.63;;;19.60;75.00;;;;;;6227485;22;44963;-66
2023/10/25 06:52:43;;;;;;;1.58;0.50;;;19.60;74.90;;;;;;6059595;22;45127;-64
2023/10/25 06:55:18;;;;;;;0.98;0.57;;;19.60;75.00;;;;;;6034784;22;46251;-66
2023/10/25 06:58:10;;;;;;;2.97;0.60;;;19.60;75.00;;;;;;6039285;22;44979;-64
2023/10/25 07:01:03;;;;;;;1.63;1.08;;;19.60;74.90;;;;;;6220120;22;45028;-67
2023/10/25 07:03:42;;;;;;;1.08;0.70;;;19.70;75.10;;;;;;6024787;22;45189;-67
2023/10/25 07:06:51;;;;;;;1.52;0.80;;;19.70;75.10;;;;;;6028628;22;46646;-64
2023/10/25 07:09:38;;;;;;;1.20;0.65;;;19.70;75.30;;;;;;6231086;22;45114;-67
2023/10/25 07:12:09;;;;;;;0.70;0.50;;;19.70;75.30;;;;;;6054876;22;45252;-68
2023/10/25 07:14:37;;;;;;;0.88;0.50;;;19.70;75.40;;;;;;6050222;22;45161;-67
2023/10/25 07:17:04;;;;;;;0.60;0.60;;;19.70;75.40;;;;;;6045850;22;47154;-67
2023/10/25 07:19:43;;;;;;;2.38;0.73;;;19.70;75.60;;;;;;6041943;22;45271;-69
2023/10/25 07:22:13;;;;;;;4.07;0.70;;;19.70;75.40;;;;;;6103750;22;45373;-65
2023/10/25 07:24:40;;;;;;;0.73;0.63;;;19.70;75.40;;;;;;6202837;22;45181;-67
2023/10/25 07:27:38;;;;;;;0.88;0.43;;;19.70;75.40;;;;;;6023569;22;47214;-67
2023/10/25 07:30:06;;;;;;;1.08;0.50;;;19.70;75.40;;;;;;6005591;22;45020;-68
2023/10/25 07:32:35;;;;;;;0.93;0.50;;;19.70;75.50;;;;;;6016230;22;45138;-68
2023/10/25 07:35:21;;;;;;;1.45;0.60;;;19.70;75.40;;;;;;6022385;22;45357;-67
2023/10/25 07:40:59;;;;;;;1.17;0.60;;;19.70;75.00;;;;;;6022923;22;45207;-67
2023/10/25 07:43:47;;;;;;;0.38;0.38;;;19.70;75.30;;;;;;6036180;22;45076;-67
2023/10/25 07:46:15;;;;;;;3.00;1.00;;;19.70;75.20;;;;;;6010441;22;45139;-67
2023/10/25 07:48:50;;;;;;;1.05;0.50;;;19.70;75.20;;;;;;6031041;22;47249;-67
2023/10/25 07:51:41;;;;;;;1.45;0.50;;;19.80;75.20;;;;;;6022544;22;45356;-67
2023/10/25 07:54:29;;;;;;;1.00;0.50;;;19.70;75.30;;;;;;6022127;22;45407;-67
2023/10/25 07:57:23;;;;;;;0.63;0.40;;;19.70;75.40;;;;;;6016712;22;45194;-67
2023/10/25 07:59:50;;;;;;;1.05;0.63;;;19.70;75.50;;;;;;6015488;22;46148;-67
2023/10/25 08:02:36;;;;;;;0.50;0.45;;;19.70;75.50;;;;;;6019167;22;45219;-67
2023/10/25 08:05:03;;;;;;;0.55;0.35;;;19.70;75.50;;;;;;6027687;22;45185;-67
2023/10/25 08:07:39;;;;;;;0.40;0.40;;;19.70;75.60;;;;;;6027486;22;45265;-67
2023/10/25 08:10:26;;;;;;;0.60;0.60;;;19.70;75.70;;;;;;6015936;22;45347;-67
2023/10/25 08:13:20;;;;;;;0.50;0.40;;;19.70;75.80;;;;;;6005313;22;45369;-67
2023/10/25 08:16:18;;;;;;;1.33;0.77;;;19.70;75.90;;;;;;6015429;22;45135;-67
2023/10/25 08:19:06;;;;;;;0.60;0.52;;;19.60;76.00;;;;;;6030774;22;45243;-67
2023/10/25 08:21:42;;;;;;;1.60;0.50;;;19.60;76.30;;;;;;6013701;22;46327;-67
2023/10/25 08:24:10;;;;;;;1.52;0.60;;;19.60;76.10;;;;;;6007052;22;45352;-67
2023/10/25 08:26:55;;;;;;;0.52;0.38;;;19.60;75.00;;;;;;5994800;22;45454;-67
2023/10/25 08:29:52;;;;;;;2.65;0.40;;;19.60;73.60;;;;;;6039039;22;45340;-66
2023/10/25 08:32:19;;;;;;;1.45;0.60;;;19.60;72.70;;;;;;6023425;22;46249;-67
2023/10/25 08:34:47;;;;;;;0.70;0.50;;;19.50;72.50;;;;;;6024736;22;45249;-66
2023/10/25 08:37:35;;;;;;;1.50;0.60;;;19.50;71.60;;;;;;6026740;22;45277;-67
2023/10/25 08:45:25;;;;;;;0.95;0.60;;;19.50;71.00;;;;;;6081643;22;45147;-65
2023/10/25 08:47:52;;;;;;;0.80;0.43;;;19.50;71.80;;;;;;6029322;22;45172;-63
2023/10/25 08:50:31;;;;;;;1.33;0.68;;;19.50;72.60;;;;;;6057950;22;45219;-64
2023/10/25 08:53:34;;;;;;;0.65;0.50;;;19.50;73.00;;;;;;6109241;22;45561;-65
2023/10/25 08:56:00;;;;;;;3.45;0.68;;;19.50;73.20;;;;;;6157505;22;45233;-66
2023/10/25 08:58:30;;;;;;;0.30;0.30;;;19.60;73.60;;;;;;6049372;22;45344;-66
2023/10/25 09:01:18;;;;;;;1.27;0.40;;;19.50;73.70;;;;;;6040173;22;45374;-66
2023/10/25 09:03:57;;;;;;;0.68;0.60;;;19.60;74.00;;;;;;6024080;22;47292;-66
2023/10/25 09:06:42;;;;;;;0.85;0.47;;;19.60;74.10;;;;;;6023049;22;45288;-66
2023/10/25 09:09:48;;;;;;;1.83;1.15;;;19.60;74.90;;;;;;5996526;22;45251;-66
2023/10/25 09:12:47;;;;;;;1.17;0.45;;;19.60;74.90;;;;;;6034430;22;45140;-66
2023/10/25 09:36:47;;;;;;;0.52;0.40;;;19.60;76.90;;;;;;6235559;22;1486835;-67
2023/10/25 09:39:27;;;;;;;0.60;0.40;;;19.50;77.00;;;;;;6094676;22;46191;-67
2023/10/25 09:42:00;;;;;;;2.08;0.60;;;19.50;76.90;;;;;;6006962;22;45125;-68
2023/10/25 09:44:50;;;;;;;0.77;0.50;;;19.60;77.20;;;;;;5979325;22;45428;-68
2023/10/25 09:47:52;;;;;;;0.43;0.35;;;19.50;77.20;;;;;;6005945;22;45264;-68
2023/10/25 09:51:23;;;;;;;0.30;0.22;;;19.60;77.40;;;;;;6010961;22;46724;-68
2023/10/25 09:54:35;;;;;;;0.75;0.43;;;19.60;77.70;;;;;;6004036;22;45169;-68
2023/10/25 09:57:16;;;;;;;0.35;0.20;;;19.60;77.50;;;;;;5981706;22;45233;-68
2023/10/25 09:59:53;;;;;;;1.65;0.28;;;19.60;77.60;;;;;;6017133;22;45210;-68
2023/10/25 10:02:55;;;;;;;0.88;0.20;;;19.60;77.70;;;;;;6008010;22;46285;-68
2023/10/25 10:09:21;;;;;;;1.10;0.47;;;19.60;77.90;;;;;;5982702;22;45253;-68
2023/10/25 10:12:18;;;;;;;0.70;0.32;;;19.60;77.90;;;;;;5965916;22;45230;-68
2023/10/25 10:15:00;;;;;;;1.45;0.38;;;19.60;77.90;;;;;;6007857;22;46360;-68
2023/10/25 10:17:41;;;;;;;0.68;0.30;;;19.60;78.00;;;;;;6010587;22;45197;-68
2023/10/25 10:21:10;;;;;;;0.50;0.30;;;19.60;77.90;;;;;;5982591;22;45274;-68
2023/10/25 10:24:05;;;;;;;0.60;0.30;;;19.60;77.90;;;;;;6022401;22;45342;-68
2023/10/25 10:27:27;;;;;;;1.55;0.30;;;19.60;77.90;;;;;;6020197;22;47443;-68
2023/10/25 10:30:31;;;;;;;1.58;0.40;;;19.60;77.90;;;;;;6001598;22;45421;-68
2023/10/25 10:37:32;;;;;;;1.10;0.50;;;19.60;77.90;;;;;;5972680;22;45218;-68
2023/10/25 10:40:14;;;;;;;0.20;0.20;;;19.60;77.90;;;;;;5983683;22;46513;-68
2023/10/25 10:43:06;;;;;;;0.20;0.20;;;19.60;77.90;;;;;;6041577;22;45259;-68
2023/10/25 10:45:36;;;;;;;0.60;0.28;;;19.60;77.90;;;;;;5988439;22;45111;-68
2023/10/25 10:51:28;;;;;;;0.38;0.20;;;19.60;78.10;;;;;;5975456;22;45393;-68
2023/10/25 10:54:13;;;;;;;0.38;0.22;;;19.60;78.00;;;;;;6056000;22;45361;-68
2023/10/25 10:56:50;;;;;;;0.80;0.38;;;19.60;79.00;;;;;;6000026;22;45185;-68
2023/10/25 10:59:37;;;;;;;0.60;0.30;;;19.60;78.30;;;;;;5985826;22;45383;-68
2023/10/25 11:02:09;;;;;;;1.80;0.30;;;19.60;78.40;;;;;;6006060;22;46300;-68
2023/10/25 11:04:54;;;;;;;0.63;0.22;;;19.60;78.20;;;;;;5983339;22;45458;-68
2023/10/25 11:07:21;;;;;;;0.30;0.20;;;19.60;78.40;;;;;;5988139;22;45242;-68
2023/10/25 11:09:48;;;;;;;0.32;0.30;;;19.60;78.50;;;;;;5997279;22;45118;-69
2023/10/25 11:12:20;;;;;;;0.60;0.40;;;19.60;78.40;;;;;;5978421;22;47395;-68
2023/10/25 11:14:53;;;;;;;0.68;0.35;;;19.60;78.50;;;;;;6012909;22;45295;-68
2023/10/25 11:17:24;;;;;;;0.85;0.30;;;19.60;78.40;;;;;;5977187;22;45231;-68
2023/10/25 11:20:19;;;;;;;0.52;0.30;;;19.60;78.40;;;;;;6001381;22;45214;-68
2023/10/25 11:23:15;;;;;;;0.40;0.30;;;19.60;78.50;;;;;;6004337;22;45744;-68
2023/10/25 11:25:52;;;;;;;3.10;0.50;;;19.60;79.00;;;;;;5983422;22;45366;-68
2023/10/25 11:29:14;;;;;;;0.35;0.20;;;19.60;78.70;;;;;;5966301;22;45437;-68
2023/10/25 11:32:00;;;;;;;1.50;0.43;;;19.60;78.90;;;;;;5978297;22;45273;-69
2023/10/25 11:34:43;;;;;;;0.90;0.50;;;19.60;79.00;;;;;;5997239;22;48487;-69
2023/10/25 11:37:55;;;;;;;0.50;0.25;;;19.60;79.10;;;;;;5999460;22;45479;-69
2023/10/25 11:40:44;;;;;;;0.77;0.30;;;19.60;79.10;;;;;;5977167;22;45261;-69
2023/10/25 11:43:12;;;;;;;0.77;0.40;;;19.60;79.40;;;;;;5971262;22;45218;-69
2023/10/25 11:46:04;;;;;;;0.30;0.25;;;19.60;79.80;;;;;;5975200;22;47251;-68
2023/10/25 11:49:09;;;;;;;0.43;0.38;;;19.60;79.70;;;;;;6003862;22;45338;-69
2023/10/25 11:54:47;;;;;;;0.50;0.30;;;19.60;80.00;;;;;;5971590;22;45212;-69
2023/10/25 11:57:35;;;;;;;0.85;0.50;;;19.60;80.00;;;;;;6004117;22;46023;-68
2023/10/25 12:00:24;;;;;;;0.57;0.30;;;19.60;80.10;;;;;;6017463;22;45176;-69
2023/10/25 12:02:53;;;;;;;0.57;0.38;;;19.60;80.10;;;;;;5984423;22;45324;-69
2023/10/25 12:05:47;;;;;;;0.65;0.50;;;19.60;80.00;;;;;;5987754;22;45565;-69
2023/10/25 12:08:34;;;;;;;0.63;0.30;;;19.60;80.20;;;;;;5992822;22;46319;-69
2023/10/25 12:11:25;;;;;;;0.30;0.30;;;19.60;80.50;;;;;;5981347;22;45314;-69
2023/10/25 12:13:53;;;;;;;0.90;0.40;;;19.60;80.40;;;;;;5973078;22;45177;-69
2023/10/25 12:16:41;;;;;;;0.40;0.40;;;19.60;80.10;;;;;;5999629;22;45200;-69
2023/10/25 12:19:16;;;;;;;0.60;0.47;;;19.60;80.10;;;;;;5990564;22;45846;-69
2023/10/25 12:21:44;;;;;;;0.77;0.40;;;19.60;80.10;;;;;;5983039;22;45161;-69
2023/10/25 12:24:29;;;;;;;0.60;0.40;;;19.60;80.10;;;;;;5986618;22;45431;-69
2023/10/25 12:27:08;;;;;;;0.38;0.38;;;19.60;80.20;;;;;;6016399;22;45159;-69
2023/10/25 12:29:57;;;;;;;1.35;0.55;;;19.60;80.10;;;;;;5994846;22;46206;-69
2023/10/25 12:32:24;;;;;;;1.05;0.57;;;19.60;80.00;;;;;;6006504;22;45262;-69
2023/10/25 12:34:51;;;;;;;0.52;0.47;;;19.60;80.10;;;;;;5990286;22;45170;-69
2023/10/25 12:37:53;;;;;;;0.47;0.40;;;19.60;80.30;;;;;;5995453;22;45182;-69
2023/10/25 12:40:40;;;;;;;0.40;0.32;;;19.60;80.20;;;;;;5993190;22;46156;-69
2023/10/25 12:43:41;;;;;;;1.23;0.40;;;19.60;80.50;;;;;;6015847;22;45087;-69
2023/10/25 12:46:11;;;;;;;0.85;0.55;;;19.60;80.30;;;;;;5988193;22;45213;-69
2023/10/25 12:49:18;;;;;;;0.98;0.60;;;19.60;80.20;;;;;;6002201;22;45193;-69
2023/10/25 12:51:56;;;;;;;1.02;0.60;;;19.60;80.30;;;;;;5983177;22;46511;-70
2023/10/25 12:54:23;;;;;;;0.35;0.35;;;19.60;80.70;;;;;;5994689;22;45286;-69
2023/10/25 12:57:24;;;;;;;0.40;0.40;;;19.60;80.80;;;;;;5982653;22;45072;-69
2023/10/25 13:00:18;;;;;;;1.00;0.40;;;19.60;81.20;;;;;;6016871;22;45255;-69
2023/10/25 13:02:57;;;;;;;0.47;0.40;;;19.60;81.20;;;;;;5989440;22;46388;-69
2023/10/25 13:05:24;;;;;;;0.63;0.40;;;19.60;81.30;;;;;;5967771;22;45310;-69
2023/10/25 13:08:12;;;;;;;0.73;0.50;;;19.60;81.20;;;;;;5982682;22;45431;-69
2023/10/25 13:13:42;;;;;;;0.47;0.40;;;19.60;81.40;;;;;;6000286;22;45217;-69
2023/10/25 13:16:31;;;;;;;0.95;0.60;;;19.60;81.50;;;;;;5980083;22;45167;-69
2023/10/25 13:19:15;;;;;;;0.85;0.40;;;19.60;81.40;;;;;;6017967;22;45243;-69
2023/10/25 13:22:25;;;;;;;1.05;0.60;;;19.60;81.50;;;;;;5974259;22;45409;-69
2023/10/25 13:25:15;;;;;;;0.50;0.50;;;19.60;81.40;;;;;;6009145;22;46234;-69
2023/10/25 13:28:00;;;;;;;0.55;0.55;;;19.60;81.00;;;;;;5988548;22;45378;-69
2023/10/25 13:30:40;;;;;;;0.50;0.50;;;19.60;81.20;;;;;;6010392;22;45087;-69
2023/10/25 13:33:06;;;;;;;1.58;0.50;;;19.60;81.20;;;;;;5975472;22;45438;-70
2023/10/25 13:35:33;;;;;;;0.50;0.40;;;19.60;81.10;;;;;;6003497;22;46442;-69
2023/10/25 13:38:21;;;;;;;0.60;0.52;;;19.60;81.30;;;;;;6035676;22;45511;-69
2023/10/25 13:41:11;;;;;;;0.40;0.30;;;19.60;81.20;;;;;;5973022;22;45330;-69
2023/10/25 13:44:07;;;;;;;0.82;0.63;;;19.60;81.70;;;;;;5992920;22;45318;-69
2023/10/25 13:46:42;;;;;;;1.13;0.70;;;19.60;81.30;;;;;;6007689;22;46227;-69
2023/10/25 13:49:13;;;;;;;0.93;0.50;;;19.60;81.50;;;;;;5987975;22;45312;-69
2023/10/25 13:51:43;;;;;;;1.10;0.80;;;19.60;81.40;;;;;;6004959;22;45137;-69
2023/10/25 13:54:49;;;;;;;0.80;0.60;;;19.60;81.40;;;;;;5989980;22;45245;-69
2023/10/25 13:57:57;;;;;;;0.73;0.60;;;19.60;81.60;;;;;;5981933;22;46202;-69
2023/10/25 14:00:26;;;;;;;0.55;0.40;;;19.60;81.60;;;;;;6013394;22;45202;-69
2023/10/25 14:02:55;;;;;;;0.95;0.57;;;19.60;82.20;;;;;;6013022;22;45206;-69
2023/10/25 14:05:42;;;;;;;0.77;0.50;;;19.60;82.10;;;;;;5996988;22;45276;-69
2023/10/25 14:08:31;;;;;;;1.15;0.40;;;19.60;82.40;;;;;;6002582;22;47073;-69
2023/10/25 14:11:06;;;;;;;0.93;0.40;;;19.60;82.40;;;;;;5998744;22;45154;-69
2023/10/25 14:13:55;;;;;;;0.68;0.45;;;19.60;82.40;;;;;;5988656;22;45195;-69
2023/10/25 14:16:27;;;;;;;0.95;0.50;;;19.60;82.70;;;;;;6002114;22;45266;-69
2023/10/25 14:18:56;;;;;;;0.43;0.38;;;19.60;82.60;;;;;;5999327;22;47423;-70
2023/10/25 14:21:37;;;;;;;0.30;0.30;;;19.60;82.40;;;;;;5986656;22;45072;-69
2023/10/25 14:24:13;;;;;;;0.63;0.30;;;19.50;82.30;;;;;;5977673;22;45229;-69
2023/10/25 14:26:51;;;;;;;0.40;0.35;;;19.60;82.40;;;;;;6015034;22;45125;-69
2023/10/25 14:29:50;;;;;;;2.20;0.40;;;19.60;82.70;;;;;;5970224;22;46536;-69
2023/10/25 14:32:23;;;;;;;0.60;0.38;;;19.60;82.70;;;;;;5972073;22;45168;-69
2023/10/25 14:34:57;;;;;;;0.55;0.40;;;19.50;82.30;;;;;;5965952;22;45176;-69
2023/10/25 14:40:26;;;;;;;0.57;0.55;;;19.60;82.20;;;;;;5968673;22;45336;-69
2023/10/25 14:43:04;;;;;;;0.43;0.43;;;19.60;82.30;;;;;;5978255;22;45362;-69
2023/10/25 14:45:34;;;;;;;0.30;0.30;;;19.60;82.40;;;;;;5969191;22;45203;-69
2023/10/25 14:48:28;;;;;;;0.70;0.40;;;19.60;82.20;;;;;;6003280;22;45242;-69
2023/10/25 14:51:26;;;;;;;0.52;0.43;;;19.60;82.20;;;;;;5996369;22;47173;-69
2023/10/25 14:54:23;;;;;;;0.57;0.52;;;19.60;82.30;;;;;;6004023;22;45134;-69
2023/10/25 14:57:13;;;;;;;0.45;0.45;;;19.60;82.40;;;;;;5979784;22;45409;-69
2023/10/25 15:00:05;;;;;;;0.50;0.47;;;19.60;82.30;;;;;;5995207;22;45168;-69
2023/10/25 15:03:11;;;;;;;0.70;0.60;;;19.60;82.30;;;;;;5985299;22;46203;-69
2023/10/25 15:05:53;;;;;;;1.02;0.60;;;19.60;82.40;;;;;;5998327;22;45100;-70
2023/10/25 15:08:34;;;;;;;0.50;0.50;;;19.60;82.40;;;;;;5987155;22;45328;-69
2023/10/25 15:11:03;;;;;;;0.70;0.43;;;19.60;82.50;;;;;;6021918;22;45133;-69
2023/10/25 15:13:46;;;;;;;0.93;0.40;;;19.60;82.60;;;;;;5982547;22;46482;-69
2023/10/25 15:16:22;;;;;;;1.13;0.50;;;19.60;82.90;;;;;;5978375;22;45189;-69
2023/10/25 15:19:12;;;;;;;0.45;0.40;;;19.60;82.90;;;;;;5987725;22;45395;-69
2023/10/25 15:22:09;;;;;;;0.93;0.52;;;19.60;83.20;;;;;;5994759;22;45310;-69
2023/10/25 15:24:43;;;;;;;0.47;0.28;;;19.50;83.50;;;;;;5993332;22;46458;-69
2023/10/25 15:27:16;;;;;;;0.30;0.30;;;19.60;83.50;;;;;;5968676;22;45395;-69
2023/10/25 15:29:47;;;;;;;0.55;0.40;;;19.60;83.50;;;;;;6000445;22;45234;-69
2023/10/25 15:32:16;;;;;;;0.52;0.50;;;19.60;83.70;;;;;;5974052;22;45391;-69
2023/10/25 15:34:52;;;;;;;0.77;0.47;;;19.60;83.50;;;;;;5987404;22;47489;-69
2023/10/25 15:37:40;;;;;;;1.27;0.45;;;19.50;83.30;;;;;;5980799;22;45357;-69
2023/10/25 15:40:10;;;;;;;0.43;0.40;;;19.50;83.30;;;;;;5965696;22;45313;-69
2023/10/25 15:42:48;;;;;;;0.68;0.60;;;19.50;83.40;;;;;;6006457;22;45440;-69
2023/10/25 15:45:35;;;;;;;0.60;0.38;;;19.60;83.30;;;;;;5983797;22;45867;-69
2023/10/25 15:48:27;;;;;;;0.68;0.43;;;19.60;83.30;;;;;;5986107;22;45141;-69